createdAt,value
2017-10-05T00:01:05.658Z,100815.89
2017-10-05T00:03:32.478Z,100808.86
2017-10-05T00:05:59.297Z,100810.55
2017-10-05T00:08:26.177Z,100795.86
2017-10-05T00:10:52.980Z,100797.02
2017-10-05T00:13:19.885Z,100775.38
2017-10-05T00:15:46.732Z,100773.13
2017-10-05T00:18:14.314Z,100758.13
2017-10-05T00:20:41.140Z,100756.34
2017-10-05T00:23:08.018Z,100761.98
2017-10-05T00:25:34.881Z,100760.78
2017-10-05T00:28:01.732Z,100764.09
2017-10-05T00:30:28.628Z,100752.06
2017-10-05T00:32:55.431Z,100758.27
2017-10-05T00:35:22.257Z,100751.09
2017-10-05T00:37:49.101Z,100749.84
2017-10-05T00:40:16.699Z,100744.41
2017-10-05T00:42:43.570Z,100724.05
2017-10-05T00:45:10.454Z,100712.49
2017-10-05T00:47:37.360Z,100708.97
2017-10-05T00:50:04.978Z,100708.41
2017-10-05T00:52:32.653Z,100706.22
2017-10-05T00:54:59.529Z,100696.11
2017-10-05T00:57:26.477Z,100684.95
2017-10-05T00:59:53.380Z,100681.77
2017-10-05T01:02:20.275Z,100672.18
2017-10-05T01:04:47.891Z,100663.38
2017-10-05T01:07:14.825Z,100661.33
2017-10-05T01:09:41.690Z,100649.84
2017-10-05T01:12:08.555Z,100635.92
2017-10-05T01:14:35.475Z,100639.54
2017-10-05T01:17:03.089Z,100632.36
2017-10-05T01:19:30.159Z,100623.69
2017-10-05T01:21:57.145Z,100609.38
2017-10-05T01:24:24.179Z,100598.59
2017-10-05T01:26:51.818Z,100598.84
2017-10-05T01:29:18.708Z,100591.30
2017-10-05T01:31:45.643Z,100573.83
2017-10-05T01:34:12.551Z,100566.88
2017-10-05T01:36:39.481Z,100560.70
2017-10-05T01:39:06.347Z,100544.91
2017-10-05T01:41:33.281Z,100539.08
2017-10-05T01:44:00.242Z,100540.70
2017-10-05T01:46:27.123Z,100528.25
2017-10-05T01:48:53.921Z,100514.03
2017-10-05T01:51:21.603Z,100509.69
2017-10-05T01:53:49.205Z,100509.97
2017-10-05T01:56:16.047Z,100496.89
2017-10-05T01:58:42.848Z,100502.45
2017-10-05T02:01:09.742Z,100491.48
2017-10-05T02:03:36.684Z,100487.91
2017-10-05T02:06:03.568Z,100503.42
2017-10-05T02:08:30.400Z,100458.34
2017-10-05T02:10:57.288Z,100447.91
2017-10-05T02:13:24.141Z,100450.31
2017-10-05T02:15:50.976Z,100435.19
2017-10-05T02:18:17.821Z,100437.95
2017-10-05T02:20:44.703Z,100426.41
2017-10-05T02:23:11.549Z,100427.92
2017-10-05T02:25:38.417Z,100425.09
2017-10-05T02:28:07.427Z,100415.16
2017-10-05T02:30:34.413Z,100408.25
2017-10-05T02:33:02.098Z,100398.18
2017-10-05T02:35:28.935Z,100386.07
2017-10-05T02:37:55.883Z,100377.11
2017-10-05T02:40:22.728Z,100357.48
2017-10-05T02:42:49.567Z,100351.03
2017-10-05T02:45:17.127Z,100354.70
2017-10-05T02:47:44.008Z,100359.84
2017-10-05T02:50:11.622Z,100359.80
2017-10-05T02:52:38.468Z,100361.03
2017-10-05T02:55:05.354Z,100346.76
2017-10-05T02:57:32.238Z,100346.50
2017-10-05T02:59:59.105Z,100339.36
2017-10-05T03:02:25.939Z,100315.05
2017-10-05T03:04:53.632Z,100320.33
2017-10-05T03:07:20.459Z,100321.10
2017-10-05T03:09:47.328Z,100308.01
2017-10-05T03:12:14.222Z,100309.14
2017-10-05T03:14:41.087Z,100307.93
2017-10-05T03:17:08.006Z,100304.66
2017-10-05T03:19:34.843Z,100283.70
2017-10-05T03:22:02.442Z,100285.77
2017-10-05T03:24:29.328Z,100273.67
2017-10-05T03:26:56.156Z,100277.98
2017-10-05T03:29:23.822Z,100263.06
2017-10-05T03:31:50.666Z,100254.53
2017-10-05T03:34:17.591Z,100253.14
2017-10-05T03:36:45.102Z,100257.23
2017-10-05T03:39:11.999Z,100263.16
2017-10-05T03:41:39.677Z,100259.37
2017-10-05T03:44:07.347Z,100258.40
2017-10-05T03:46:34.958Z,100244.56
2017-10-05T03:49:01.877Z,100238.49
2017-10-05T03:51:28.809Z,100233.84
2017-10-05T03:53:55.723Z,100232.62
2017-10-05T03:56:23.353Z,100223.83
2017-10-05T03:58:50.245Z,100211.78
2017-10-05T04:01:17.158Z,100215.66
2017-10-05T04:03:44.919Z,100205.80
2017-10-05T04:06:11.796Z,100193.83
2017-10-05T04:08:38.647Z,100184.69
2017-10-05T04:11:05.520Z,100175.47
2017-10-05T04:13:32.485Z,100176.42
2017-10-05T04:15:59.358Z,100175.59
2017-10-05T04:18:26.247Z,100181.88
2017-10-05T04:20:53.076Z,100173.18
2017-10-05T04:23:19.920Z,100166.57
2017-10-05T04:25:46.858Z,100162.64
2017-10-05T04:28:14.508Z,100163.96
2017-10-05T04:30:41.366Z,100164.86
2017-10-05T04:33:08.289Z,100159.05
2017-10-05T04:35:35.174Z,100161.80
2017-10-05T04:38:02.054Z,100148.33
2017-10-05T04:40:28.939Z,100145.41
2017-10-05T04:42:55.841Z,100130.27
2017-10-05T04:45:22.706Z,100130.85
2017-10-05T04:47:50.440Z,100127.72
2017-10-05T04:50:17.357Z,100121.52
2017-10-05T04:52:44.221Z,100102.63
2017-10-05T04:55:12.987Z,100101.16
2017-10-05T04:57:42.535Z,100100.42
2017-10-05T05:00:09.447Z,100096.64
2017-10-05T05:02:36.307Z,100100.22
2017-10-05T05:05:03.150Z,100097.22
2017-10-05T05:07:29.998Z,100085.30
2017-10-05T05:09:56.859Z,100073.19
2017-10-05T05:12:23.729Z,100070.30
2017-10-05T05:14:50.624Z,100061.36
2017-10-05T05:17:17.440Z,100051.55
2017-10-05T05:19:44.290Z,100048.97
2017-10-05T05:22:11.121Z,100044.09
2017-10-05T05:24:38.724Z,100047.30
2017-10-05T05:27:05.658Z,100040.63
2017-10-05T05:29:33.283Z,100032.30
2017-10-05T05:32:00.282Z,100029.72
2017-10-05T05:34:27.183Z,100015.88
2017-10-05T05:36:54.842Z,100021.18
2017-10-05T05:39:22.508Z,100001.66
2017-10-05T05:41:49.393Z,100003.53
2017-10-05T05:44:16.276Z,99998.39
2017-10-05T05:46:43.164Z,100000.34
2017-10-05T05:49:10.137Z,99991.68
2017-10-05T05:51:37.049Z,99979.80
2017-10-05T05:54:04.707Z,99988.25
2017-10-05T05:56:31.638Z,99968.10
2017-10-05T05:58:58.506Z,99962.30
2017-10-05T06:01:25.516Z,99963.81
2017-10-05T06:03:53.176Z,99972.86
2017-10-05T06:06:20.020Z,99959.73
2017-10-05T06:08:46.946Z,99956.25
2017-10-05T06:11:13.871Z,99947.45
2017-10-05T06:13:40.725Z,99939.19
2017-10-05T06:16:07.644Z,99931.92
2017-10-05T06:18:34.570Z,99932.40
2017-10-05T06:21:02.267Z,99921.19
2017-10-05T06:23:29.196Z,99923.63
2017-10-05T06:25:56.187Z,99934.31
2017-10-05T06:28:23.051Z,99934.89
2017-10-05T06:30:49.895Z,99912.52
2017-10-05T06:33:17.496Z,99924.92
2017-10-05T06:35:44.374Z,99923.00
2017-10-05T06:38:11.203Z,99912.86
2017-10-05T06:40:38.867Z,99915.41
2017-10-05T06:43:05.761Z,99924.96
2017-10-05T06:45:32.741Z,99926.91
2017-10-05T06:47:59.607Z,99910.96
2017-10-05T06:50:26.465Z,99914.66
2017-10-05T06:52:53.287Z,99913.71
2017-10-05T06:55:20.874Z,99908.91
2017-10-05T06:57:48.465Z,99897.86
2017-10-05T07:00:15.326Z,99905.92
2017-10-05T07:02:42.210Z,99908.89
2017-10-05T07:05:09.097Z,99893.45
2017-10-05T07:07:35.947Z,99887.11
2017-10-05T07:10:02.857Z,99896.10
2017-10-05T07:12:30.512Z,99896.91
2017-10-05T07:14:58.108Z,99884.34
2017-10-05T07:17:25.729Z,99898.69
2017-10-05T07:19:52.634Z,99888.16
2017-10-05T07:22:19.427Z,99878.92
2017-10-05T07:24:46.445Z,99877.29
2017-10-05T07:27:13.328Z,99873.44
2017-10-05T07:29:40.169Z,99871.47
2017-10-05T07:32:07.077Z,99865.05
2017-10-05T07:34:34.745Z,99872.79
2017-10-05T07:37:02.410Z,99864.51
2017-10-05T07:39:29.303Z,99857.97
2017-10-05T07:41:56.166Z,99864.81
2017-10-05T07:44:23.025Z,99857.50
2017-10-05T07:46:49.911Z,99860.12
2017-10-05T07:49:16.832Z,99868.84
2017-10-05T07:51:43.689Z,99850.42
2017-10-05T07:54:11.320Z,99849.09
2017-10-05T07:56:38.183Z,99845.94
2017-10-05T07:59:05.043Z,99845.34
2017-10-05T08:01:31.939Z,99843.42
2017-10-05T08:03:58.849Z,99837.78
2017-10-05T08:06:25.717Z,99842.41
2017-10-05T08:08:52.619Z,99846.77
2017-10-05T08:11:19.476Z,99835.02
2017-10-05T08:13:46.410Z,99834.08
2017-10-05T08:16:13.244Z,99828.52
2017-10-05T08:18:40.059Z,99830.63
2017-10-05T08:21:06.916Z,99837.34
2017-10-05T08:23:33.754Z,99835.89
2017-10-05T08:26:00.599Z,99829.13
2017-10-05T08:28:27.454Z,99823.70
2017-10-05T08:30:54.368Z,99822.80
2017-10-05T08:33:22.487Z,99814.67
2017-10-05T08:35:50.045Z,99807.74
2017-10-05T08:38:16.919Z,99812.92
2017-10-05T08:40:43.809Z,99810.58
2017-10-05T08:43:10.686Z,99808.69
2017-10-05T08:45:38.283Z,99811.13
2017-10-05T08:48:05.149Z,99812.75
2017-10-05T08:50:32.055Z,99805.22
2017-10-05T08:52:59.631Z,99804.63
2017-10-05T08:55:27.215Z,99790.20
2017-10-05T08:57:54.779Z,99793.11
2017-10-05T09:00:21.667Z,99791.77
2017-10-05T09:02:48.594Z,99797.73
2017-10-05T09:05:15.506Z,99796.27
2017-10-05T09:07:42.377Z,99800.98
2017-10-05T09:10:09.282Z,99785.61
2017-10-05T09:12:37.613Z,99784.58
2017-10-05T09:15:04.522Z,99790.83
2017-10-05T09:17:31.406Z,99794.81
2017-10-05T09:19:58.247Z,99791.38
2017-10-05T09:22:25.075Z,99784.99
2017-10-05T09:24:51.978Z,99781.73
2017-10-05T09:27:18.854Z,99793.91
2017-10-05T09:29:45.664Z,99797.58
2017-10-05T09:32:12.505Z,99809.05
2017-10-05T09:34:39.385Z,99823.23
2017-10-05T09:37:06.223Z,99799.93
2017-10-05T09:39:33.804Z,99795.45
2017-10-05T09:42:00.674Z,99791.52
2017-10-05T09:44:27.541Z,99795.02
2017-10-05T09:46:54.418Z,99787.31
2017-10-05T09:49:21.278Z,99801.48
2017-10-05T09:51:48.205Z,99789.11
2017-10-05T09:54:15.098Z,99795.73
2017-10-05T09:56:42.003Z,99785.83
2017-10-05T09:59:08.906Z,99780.77
2017-10-05T10:01:35.799Z,99803.36
2017-10-05T10:04:02.691Z,99785.96
2017-10-05T10:06:29.543Z,99791.57
2017-10-05T10:08:56.458Z,99809.98
2017-10-05T10:11:23.338Z,99839.52
2017-10-05T10:13:50.181Z,99836.13
2017-10-05T10:16:17.027Z,99847.05
2017-10-05T10:18:43.888Z,99873.79
2017-10-05T10:21:11.524Z,99898.98
2017-10-05T10:23:38.431Z,99907.19
2017-10-05T10:26:05.348Z,99910.94
2017-10-05T10:28:32.178Z,99929.16
2017-10-05T10:30:59.054Z,99931.86
2017-10-05T10:33:25.909Z,99938.14
2017-10-05T10:35:52.762Z,99931.69
2017-10-05T10:38:19.575Z,99952.95
2017-10-05T10:40:46.436Z,99941.28
2017-10-05T10:43:13.354Z,99951.73
2017-10-05T10:45:40.186Z,99960.78
2017-10-05T10:48:07.804Z,99967.17
2017-10-05T10:50:34.662Z,99971.75
2017-10-05T10:53:01.540Z,99975.80
2017-10-05T10:55:28.380Z,99986.73
2017-10-05T10:57:55.226Z,99994.84
2017-10-05T11:00:22.102Z,100013.81
2017-10-05T11:02:49.585Z,100025.55
2017-10-05T11:05:16.426Z,100026.05
2017-10-05T11:07:43.271Z,100034.25
2017-10-05T11:10:10.860Z,100038.03
2017-10-05T11:12:37.732Z,100044.67
2017-10-05T11:15:04.605Z,100043.69
2017-10-05T11:17:31.472Z,100049.70
2017-10-05T11:19:58.381Z,100050.90
2017-10-05T11:22:25.212Z,100054.63
2017-10-05T11:24:52.047Z,100061.03
2017-10-05T11:27:18.870Z,100080.70
2017-10-05T11:29:46.508Z,100074.61
2017-10-05T11:32:13.387Z,100088.84
2017-10-05T11:34:40.242Z,100081.09
2017-10-05T11:37:07.843Z,100098.73
2017-10-05T11:39:34.692Z,100110.28
2017-10-05T11:42:01.528Z,100116.48
2017-10-05T11:44:28.377Z,100116.91
2017-10-05T11:46:55.243Z,100130.30
2017-10-05T11:49:22.068Z,100169.42
2017-10-05T11:51:48.907Z,100170.17
2017-10-05T11:54:15.761Z,100180.58
2017-10-05T11:56:42.681Z,100177.36
2017-10-05T11:59:09.545Z,100180.54
2017-10-05T12:01:36.405Z,100197.30
2017-10-05T12:04:03.350Z,100189.61
2017-10-05T12:06:30.201Z,100184.47
2017-10-05T12:08:57.073Z,100192.89
2017-10-05T12:11:23.921Z,100191.28
2017-10-05T12:13:51.551Z,100200.28
2017-10-05T12:16:18.432Z,100199.74
2017-10-05T12:18:45.312Z,100215.06
2017-10-05T12:21:13.200Z,100223.95
2017-10-05T12:23:40.024Z,100219.31
2017-10-05T12:26:06.860Z,100223.73
2017-10-05T12:28:33.759Z,100233.41
2017-10-05T12:31:00.588Z,100234.27
2017-10-05T12:33:27.523Z,100226.88
2017-10-05T12:35:54.336Z,100247.91
2017-10-05T12:38:21.119Z,100253.38
2017-10-05T12:40:48.489Z,100280.28
2017-10-05T12:43:16.189Z,100284.83
2017-10-05T12:45:43.728Z,100282.01
2017-10-05T12:48:10.571Z,100284.55
2017-10-05T12:50:37.443Z,100280.32
2017-10-05T12:53:04.289Z,100299.52
2017-10-05T12:55:31.100Z,100300.22
2017-10-05T12:57:58.656Z,100303.19
2017-10-05T13:00:25.493Z,100315.88
2017-10-05T13:02:52.376Z,100323.95
2017-10-05T13:05:19.254Z,100337.34
2017-10-05T13:07:46.110Z,100335.74
2017-10-05T13:10:13.707Z,100335.02
2017-10-05T13:12:41.296Z,100332.96
2017-10-05T13:15:08.109Z,100331.03
2017-10-05T13:17:34.909Z,100330.88
2017-10-05T13:20:02.493Z,100342.47
2017-10-05T13:22:29.322Z,100340.59
2017-10-05T13:24:56.124Z,100360.80
2017-10-05T13:27:22.935Z,100340.42
2017-10-05T13:29:49.866Z,100343.14
2017-10-05T13:32:16.691Z,100339.55
2017-10-05T13:34:44.333Z,100356.44
2017-10-05T13:37:11.155Z,100355.30
2017-10-05T13:39:37.961Z,100354.12
2017-10-05T13:42:04.741Z,100352.97
2017-10-05T13:44:32.396Z,100352.42
2017-10-05T13:47:00.140Z,100364.88
2017-10-05T13:49:26.990Z,100365.06
2017-10-05T13:51:53.800Z,100365.77
2017-10-05T13:54:20.644Z,100369.08
2017-10-05T13:56:47.553Z,100370.67
2017-10-05T13:59:15.109Z,100370.59
2017-10-05T14:01:41.901Z,100380.44
2017-10-05T14:04:08.733Z,100385.02
2017-10-05T14:06:36.308Z,100381.67
2017-10-05T14:09:03.300Z,100385.02
2017-10-05T14:11:30.859Z,100395.85
2017-10-05T14:13:57.734Z,100396.75
2017-10-05T14:16:25.278Z,100394.77
2017-10-05T14:18:52.059Z,100401.35
2017-10-05T14:21:18.919Z,100407.84
2017-10-05T14:23:45.771Z,100406.27
2017-10-05T14:26:12.602Z,100415.16
2017-10-05T14:28:39.421Z,100413.07
2017-10-05T14:31:06.986Z,100415.88
2017-10-05T14:33:34.591Z,100418.30
2017-10-05T14:36:01.450Z,100423.70
2017-10-05T14:38:28.271Z,100422.81
2017-10-05T14:40:55.136Z,100413.22
2017-10-05T14:43:21.958Z,100415.16
2017-10-05T14:45:48.751Z,100433.50
2017-10-05T14:48:15.605Z,100443.98
2017-10-05T14:50:42.518Z,100450.08
2017-10-05T14:53:09.367Z,100453.67
2017-10-05T14:55:36.231Z,100455.36
2017-10-05T14:58:03.789Z,100471.37
2017-10-05T15:00:30.637Z,100471.23
2017-10-05T15:03:08.493Z,100464.13
2017-10-05T15:15:22.487Z,100479.72
2017-10-05T15:17:49.370Z,100485.17
2017-10-05T15:20:16.804Z,100483.41
2017-10-05T15:22:44.378Z,100480.27
2017-10-05T15:25:11.258Z,100502.60
2017-10-05T15:27:38.844Z,100500.41
2017-10-05T15:30:05.717Z,100512.67
2017-10-05T15:32:32.634Z,100515.37
2017-10-05T15:34:59.490Z,100519.50
2017-10-05T15:37:26.347Z,100525.51
2017-10-05T15:39:53.600Z,100537.02
2017-10-05T15:42:20.433Z,100538.11
2017-10-05T15:44:47.248Z,100541.65
2017-10-05T15:47:14.083Z,100541.83
2017-10-05T15:49:40.919Z,100548.52
2017-10-05T15:52:07.809Z,100549.73
2017-10-05T15:54:34.695Z,100547.19
2017-10-05T15:57:01.589Z,100546.81
2017-10-05T15:59:28.477Z,100547.03
2017-10-05T16:01:55.313Z,100545.62
2017-10-05T16:04:22.179Z,100550.23
2017-10-05T16:06:49.056Z,100557.00
2017-10-05T16:09:15.939Z,100561.61
2017-10-05T16:11:42.778Z,100569.25
2017-10-05T16:14:09.673Z,100572.91
2017-10-05T16:16:38.617Z,100576.58
2017-10-05T16:19:06.336Z,100576.20
2017-10-05T16:21:33.290Z,100590.36
2017-10-05T16:24:00.217Z,100587.69
2017-10-05T16:26:27.908Z,100581.70
2017-10-05T16:28:55.627Z,100587.86
2017-10-05T16:31:22.622Z,100587.95
2017-10-05T16:33:51.316Z,100598.53
2017-10-05T16:36:18.339Z,100597.17
2017-10-05T16:38:45.441Z,100597.80
2017-10-05T16:41:12.289Z,100599.97
2017-10-05T16:43:39.821Z,100606.20
2017-10-05T16:46:07.495Z,100610.87
2017-10-05T16:48:35.246Z,100611.25
2017-10-05T16:51:02.212Z,100615.80
2017-10-05T16:53:29.357Z,100617.52
2017-10-05T16:55:56.383Z,100622.45
2017-10-05T16:58:23.485Z,100616.34
2017-10-05T17:00:51.377Z,100620.56
2017-10-05T17:03:18.291Z,100622.82
2017-10-05T17:05:45.905Z,100627.97
2017-10-05T17:08:12.847Z,100643.05
2017-10-05T17:10:39.751Z,100649.14
2017-10-05T17:13:06.594Z,100658.27
2017-10-05T17:15:33.580Z,100668.41
2017-10-05T17:18:00.397Z,100670.11
2017-10-05T17:20:27.976Z,100679.00
2017-10-05T17:22:54.843Z,100677.06
2017-10-05T17:25:22.439Z,100691.27
2017-10-05T17:27:49.371Z,100691.59
2017-10-05T17:30:16.986Z,100696.40
2017-10-05T17:32:44.054Z,100697.97
2017-10-05T17:35:10.963Z,100704.61
2017-10-05T17:37:38.567Z,100711.13
2017-10-05T17:40:05.452Z,100707.81
2017-10-05T17:42:32.329Z,100712.81
2017-10-05T17:44:59.210Z,100721.41
2017-10-05T17:47:26.122Z,100723.16
2017-10-05T17:49:52.952Z,100727.83
2017-10-05T17:52:19.931Z,100720.86
2017-10-05T17:54:47.564Z,100719.57
2017-10-05T17:57:15.166Z,100726.63
2017-10-05T17:59:42.148Z,100728.08
2017-10-05T18:02:09.866Z,100730.58
2017-10-05T18:04:36.875Z,100735.73
2017-10-05T18:07:05.222Z,100739.70
2017-10-05T18:09:32.187Z,100737.77
2017-10-05T18:12:00.297Z,100740.62
2017-10-05T18:14:27.159Z,100742.45
2017-10-05T18:16:54.111Z,100740.27
2017-10-05T18:19:20.989Z,100748.80
2017-10-05T18:21:48.028Z,100745.64
2017-10-05T18:24:14.995Z,100756.70
2017-10-05T18:26:43.620Z,100757.47
2017-10-05T18:29:12.337Z,100755.11
2017-10-05T18:31:39.363Z,100754.55
2017-10-05T18:34:06.330Z,100757.69
2017-10-05T18:36:33.740Z,100765.27
2017-10-05T18:39:01.257Z,100764.79
2017-10-05T18:41:28.868Z,100768.97
2017-10-05T18:43:56.559Z,100769.13
2017-10-05T18:46:24.429Z,100769.20
2017-10-05T18:48:54.017Z,100776.23
2017-10-05T18:51:22.690Z,100771.63
2017-10-05T18:53:49.772Z,100775.67
2017-10-05T18:56:20.126Z,100776.95
2017-10-05T18:58:48.361Z,100772.61
2017-10-05T19:01:15.519Z,100773.71
2017-10-05T19:03:44.080Z,100783.09
2017-10-05T19:06:12.505Z,100773.95
2017-10-05T19:08:40.774Z,100782.45
2017-10-05T19:11:07.703Z,100787.09
2017-10-05T19:13:34.753Z,100783.34
2017-10-05T19:16:01.719Z,100780.50
2017-10-05T19:18:28.833Z,100787.62
2017-10-05T19:20:58.378Z,100788.09
2017-10-05T19:23:26.886Z,100788.09
2017-10-05T19:25:56.350Z,100797.47
2017-10-05T19:28:25.003Z,100795.16
2017-10-05T19:30:54.357Z,100800.00
2017-10-05T19:33:21.792Z,100812.81
2017-10-05T19:35:48.737Z,100810.72
2017-10-05T19:38:18.165Z,100803.02
2017-10-05T19:40:47.181Z,100812.28
2017-10-05T19:43:15.779Z,100813.13
2017-10-05T19:45:44.658Z,100811.03
2017-10-05T19:48:13.580Z,100811.41
2017-10-05T19:50:42.488Z,100817.66
2017-10-05T19:53:11.477Z,100823.14
2017-10-05T19:55:39.911Z,100819.00
2017-10-05T19:58:07.853Z,100809.97
2017-10-05T20:00:37.324Z,100810.85
2017-10-05T20:03:06.742Z,100817.59
2017-10-05T20:05:35.653Z,100821.97
2017-10-05T20:08:03.064Z,100815.29
2017-10-05T20:10:31.316Z,100821.34
2017-10-05T20:12:59.092Z,100823.07
2017-10-05T20:15:31.821Z,100827.78
2017-10-05T20:18:00.544Z,100832.08
2017-10-05T20:20:35.371Z,100834.24
2017-10-05T20:23:09.799Z,100833.91
2017-10-05T20:49:23.544Z,100854.38
2017-10-05T20:51:50.409Z,100845.30
2017-10-05T20:54:17.353Z,100852.60
2017-10-05T20:56:44.264Z,100847.25
2017-10-05T20:59:11.167Z,100845.92
2017-10-05T21:01:38.228Z,100851.73
2017-10-05T21:04:05.104Z,100852.72
2017-10-05T21:06:32.471Z,100852.04
2017-10-05T21:09:00.141Z,100851.22
2017-10-05T21:11:27.023Z,100853.96
2017-10-05T21:26:51.386Z,100853.07
2017-10-05T21:29:18.272Z,100846.03
2017-10-05T21:31:45.140Z,100848.13
2017-10-05T21:34:12.010Z,100850.59
2017-10-05T21:36:38.869Z,100852.72
2017-10-05T21:39:05.734Z,100849.37
2017-10-05T21:41:32.690Z,100848.30
2017-10-05T21:43:59.544Z,100850.52
2017-10-05T21:46:26.476Z,100854.48
2017-10-05T21:48:53.441Z,100852.49
2017-10-05T21:51:20.337Z,100847.37
2017-10-05T21:53:47.448Z,100853.38
2017-10-05T21:56:14.519Z,100847.71
2017-10-05T21:58:41.484Z,100864.04
2017-10-05T22:01:08.421Z,100860.37
2017-10-05T22:03:36.128Z,100867.55
2017-10-05T22:06:03.123Z,100863.73
2017-10-05T22:08:30.082Z,100865.54
2017-10-05T22:10:56.968Z,100867.00
2017-10-05T22:13:24.759Z,100853.61
2017-10-05T22:15:52.550Z,100868.95
2017-10-05T22:18:20.259Z,100864.97
2017-10-05T22:20:47.183Z,100864.98
2017-10-05T22:23:14.134Z,100865.49
2017-10-05T22:25:41.030Z,100856.05
2017-10-05T22:28:08.701Z,100849.16
2017-10-05T22:30:35.715Z,100859.29
2017-10-05T22:33:03.116Z,100855.27
2017-10-05T22:35:30.446Z,100866.27
2017-10-05T22:37:57.351Z,100858.94
2017-10-05T22:40:24.248Z,100861.80
2017-10-05T22:42:51.896Z,100856.12
2017-10-05T22:45:19.973Z,100847.11
2017-10-05T22:47:46.871Z,100857.75
2017-10-05T22:50:14.534Z,100855.99
2017-10-05T22:52:41.457Z,100854.99
2017-10-05T22:55:08.429Z,100862.91
2017-10-05T22:57:35.335Z,100859.17
2017-10-05T23:00:02.273Z,100858.09
2017-10-05T23:02:29.224Z,100865.62
2017-10-05T23:04:56.128Z,100862.41
2017-10-05T23:07:23.135Z,100857.80
2017-10-05T23:09:50.021Z,100860.58
2017-10-05T23:12:17.056Z,100862.02
2017-10-05T23:14:43.976Z,100862.77
2017-10-05T23:17:10.895Z,100861.25
2017-10-05T23:19:39.538Z,100857.95
2017-10-05T23:22:06.563Z,100863.05
2017-10-05T23:24:33.607Z,100856.22
2017-10-05T23:27:00.541Z,100855.91
2017-10-05T23:29:28.219Z,100855.73
2017-10-05T23:31:55.359Z,100855.48
2017-10-05T23:34:22.300Z,100852.31
2017-10-05T23:36:49.188Z,100848.38
2017-10-05T23:39:16.113Z,100849.70
2017-10-05T23:41:43.043Z,100836.58
2017-10-05T23:44:10.694Z,100848.92
2017-10-05T23:46:37.599Z,100845.53
2017-10-05T23:49:05.617Z,100842.92
2017-10-05T23:51:32.512Z,100845.05
2017-10-05T23:53:59.429Z,100834.42
2017-10-05T23:56:28.243Z,100840.66
2017-10-05T23:58:55.121Z,100838.94
